sensor_id;sensor_type;location;lat;lon;timestamp;pressure;altitude;pressure_sealevel;temperature;humidity
7662;BME280;30314;48.184;11.510;2023-05-01T00:00:23;95799.53;;;9.29;88.37
7662;BME280;30314;48.184;11.510;2023-05-01T00:02:52;95802.66;;;9.32;88.34
7662;BME280;30314;48.184;11.510;2023-05-01T00:05:19;95806.94;;;9.27;88.66
7662;BME280;30314;48.184;11.510;2023-05-01T00:07:46;95786.72;;;9.18;88.59
7662;BME280;30314;48.184;11.510;2023-05-01T00:10:12;95795.88;;;9.25;88.03
7662;BME280;30314;48.184;11.510;2023-05-01T00:12:39;95794.00;;;9.31;87.49
7662;BME280;30314;48.184;11.510;2023-05-01T00:15:06;95785.34;;;9.25;87.96
7662;BME280;30314;48.184;11.510;2023-05-01T00:17:32;95780.66;;;9.22;87.96
7662;BME280;30314;48.184;11.510;2023-05-01T00:19:59;95793.25;;;9.25;89.33
7662;BME280;30314;48.184;11.510;2023-05-01T00:22:25;95754.94;;;9.03;89.31
7662;BME280;30314;48.184;11.510;2023-05-01T00:24:52;95765.63;;;9.18;87.83
7662;BME280;30314;48.184;11.510;2023-05-01T00:27:18;95764.34;;;9.20;87.93
7662;BME280;30314;48.184;11.510;2023-05-01T00:29:45;95742.50;;;9.14;87.65
7662;BME280;30314;48.184;11.510;2023-05-01T00:32:11;95745.13;;;9.14;88.00
7662;BME280;30314;48.184;11.510;2023-05-01T00:34:38;95751.78;;;9.07;88.58
7662;BME280;30314;48.184;11.510;2023-05-01T00:37:05;95759.34;;;9.13;89.07
7662;BME280;30314;48.184;11.510;2023-05-01T00:39:31;95753.28;;;9.13;89.25
7662;BME280;30314;48.184;11.510;2023-05-01T00:41:57;95764.41;;;9.10;89.43
7662;BME280;30314;48.184;11.510;2023-05-01T00:44:24;95758.38;;;9.04;89.91
7662;BME280;30314;48.184;11.510;2023-05-01T00:46:51;95759.78;;;8.96;90.16
7662;BME280;30314;48.184;11.510;2023-05-01T00:49:19;95761.91;;;8.94;91.12
7662;BME280;30314;48.184;11.510;2023-05-01T00:51:48;95722.31;;;8.70;91.75
7662;BME280;30314;48.184;11.510;2023-05-01T00:54:18;95717.19;;;8.54;92.85
7662;BME280;30314;48.184;11.510;2023-05-01T00:56:46;95756.22;;;8.77;94.24
7662;BME280;30314;48.184;11.510;2023-05-01T00:59:13;95752.09;;;8.70;93.74
7662;BME280;30314;48.184;11.510;2023-05-01T01:01:40;95751.16;;;8.56;95.55
7662;BME280;30314;48.184;11.510;2023-05-01T01:04:07;95738.31;;;8.44;96.34
7662;BME280;30314;48.184;11.510;2023-05-01T01:06:55;95756.97;;;8.48;97.50
7662;BME280;30314;48.184;11.510;2023-05-01T01:12:23;95766.03;;;8.31;99.71
7662;BME280;30314;48.184;11.510;2023-05-01T01:14:58;95759.75;;;8.27;99.65
7662;BME280;30314;48.184;11.510;2023-05-01T01:17:35;95759.03;;;8.16;100.00
7662;BME280;30314;48.184;11.510;2023-05-01T01:20:36;95749.09;;;8.08;100.00
7662;BME280;30314;48.184;11.510;2023-05-01T01:29:03;95736.19;;;8.06;100.00
7662;BME280;30314;48.184;11.510;2023-05-01T01:31:56;95741.66;;;8.15;100.00
7662;BME280;30314;48.184;11.510;2023-05-01T01:34:32;95734.53;;;8.21;100.00
7662;BME280;30314;48.184;11.510;2023-05-01T01:37:03;95735.38;;;8.11;100.00
7662;BME280;30314;48.184;11.510;2023-05-01T01:39:54;95726.75;;;8.05;100.00
7662;BME280;30314;48.184;11.510;2023-05-01T01:42:36;95717.28;;;7.99;100.00
7662;BME280;30314;48.184;11.510;2023-05-01T01:45:07;95718.88;;;8.00;100.00
7662;BME280;30314;48.184;11.510;2023-05-01T01:47:40;95722.28;;;8.00;100.00
7662;BME280;30314;48.184;11.510;2023-05-01T01:50:09;95712.81;;;7.99;100.00
7662;BME280;30314;48.184;11.510;2023-05-01T01:52:37;95722.78;;;8.02;100.00
7662;BME280;30314;48.184;11.510;2023-05-01T01:55:09;95723.09;;;8.01;100.00
7662;BME280;30314;48.184;11.510;2023-05-01T01:57:38;95709.50;;;7.83;100.00
7662;BME280;30314;48.184;11.510;2023-05-01T02:00:11;95720.50;;;7.91;100.00
7662;BME280;30314;48.184;11.510;2023-05-01T02:02:39;95694.81;;;7.72;100.00
7662;BME280;30314;48.184;11.510;2023-05-01T02:05:07;95700.84;;;7.83;100.00
7662;BME280;30314;48.184;11.510;2023-05-01T02:07:35;95709.78;;;7.77;100.00
7662;BME280;30314;48.184;11.510;2023-05-01T02:10:04;95708.94;;;7.92;100.00
7662;BME280;30314;48.184;11.510;2023-05-01T02:12:32;95686.41;;;7.70;100.00
7662;BME280;30314;48.184;11.510;2023-05-01T02:14:59;95711.13;;;7.69;100.00
7662;BME280;30314;48.184;11.510;2023-05-01T02:17:27;95709.09;;;7.55;100.00
7662;BME280;30314;48.184;11.510;2023-05-01T02:19:55;95706.22;;;7.52;100.00
7662;BME280;30314;48.184;11.510;2023-05-01T02:22:24;95689.44;;;7.42;100.00
7662;BME280;30314;48.184;11.510;2023-05-01T02:24:53;95700.19;;;7.46;100.00
7662;BME280;30314;48.184;11.510;2023-05-01T02:27:34;95677.41;;;7.26;100.00
7662;BME280;30314;48.184;11.510;2023-05-01T02:30:01;95675.91;;;7.14;100.00
7662;BME280;30314;48.184;11.510;2023-05-01T02:32:27;95691.91;;;7.13;100.00
7662;BME280;30314;48.184;11.510;2023-05-01T02:34:54;95679.59;;;6.98;100.00
7662;BME280;30314;48.184;11.510;2023-05-01T02:37:21;95679.59;;;6.98;100.00
7662;BME280;30314;48.184;11.510;2023-05-01T02:39:48;95681.19;;;6.94;100.00
7662;BME280;30314;48.184;11.510;2023-05-01T02:42:16;95681.97;;;6.89;100.00
7662;BME280;30314;48.184;11.510;2023-05-01T02:44:49;95667.03;;;6.89;100.00
7662;BME280;30314;48.184;11.510;2023-05-01T02:47:19;95678.03;;;6.97;100.00
7662;BME280;30314;48.184;11.510;2023-05-01T02:49:47;95667.81;;;6.80;100.00
7662;BME280;30314;48.184;11.510;2023-05-01T02:52:18;95669.91;;;6.77;100.00
7662;BME280;30314;48.184;11.510;2023-05-01T02:54:48;95657.84;;;6.66;100.00
7662;BME280;30314;48.184;11.510;2023-05-01T02:57:18;95668.59;;;6.70;100.00
7662;BME280;30314;48.184;11.510;2023-05-01T02:59:45;95668.59;;;6.70;100.00
7662;BME280;30314;48.184;11.510;2023-05-01T03:02:12;95667.31;;;6.67;100.00
7662;BME280;30314;48.184;11.510;2023-05-01T03:04:39;95668.88;;;6.63;100.00
7662;BME280;30314;48.184;11.510;2023-05-01T03:07:06;95687.78;;;6.75;100.00
7662;BME280;30314;48.184;11.510;2023-05-01T03:09:32;95666.53;;;6.61;100.00
7662;BME280;30314;48.184;11.510;2023-05-01T03:11:59;95667.56;;;6.55;100.00
7662;BME280;30314;48.184;11.510;2023-05-01T03:14:26;95675.69;;;6.54;100.00
7662;BME280;30314;48.184;11.510;2023-05-01T03:16:54;95652.09;;;6.33;100.00
7662;BME280;30314;48.184;11.510;2023-05-01T03:19:21;95659.44;;;6.36;100.00
7662;BME280;30314;48.184;11.510;2023-05-01T03:21:47;95674.66;;;6.49;100.00
7662;BME280;30314;48.184;11.510;2023-05-01T03:24:14;95655.78;;;6.37;100.00
7662;BME280;30314;48.184;11.510;2023-05-01T03:26:40;95665.72;;;6.40;100.00
7662;BME280;30314;48.184;11.510;2023-05-01T03:29:07;95674.41;;;6.36;100.00
7662;BME280;30314;48.184;11.510;2023-05-01T03:31:34;95653.13;;;6.27;100.00
7662;BME280;30314;48.184;11.510;2023-05-01T03:34:01;95653.94;;;6.22;100.00
7662;BME280;30314;48.184;11.510;2023-05-01T03:36:27;95672.31;;;6.48;100.00
7662;BME280;30314;48.184;11.510;2023-05-01T03:38:54;95667.81;;;6.54;100.00
7662;BME280;30314;48.184;11.510;2023-05-01T03:41:49;95655.78;;;6.37;100.00
7662;BME280;30314;48.184;11.510;2023-05-01T03:44:24;95663.91;;;6.51;100.00
7662;BME280;30314;48.184;11.510;2023-05-01T03:46:51;95679.38;;;6.53;100.00
7662;BME280;30314;48.184;11.510;2023-05-01T03:49:22;95655.50;;;6.33;100.00
7662;BME280;30314;48.184;11.510;2023-05-01T03:51:50;95659.72;;;6.29;100.00
7662;BME280;30314;48.184;11.510;2023-05-01T03:54:16;95657.38;;;6.28;100.00
7662;BME280;30314;48.184;11.510;2023-05-01T03:56:57;95654.19;;;6.26;100.00
7662;BME280;30314;48.184;11.510;2023-05-01T03:59:24;95643.69;;;6.26;100.00
7662;BME280;30314;48.184;11.510;2023-05-01T04:01:50;95658.41;;;6.32;100.00
7662;BME280;30314;48.184;11.510;2023-05-01T04:04:17;95637.16;;;6.28;100.00
7662;BME280;30314;48.184;11.510;2023-05-01T04:06:50;95642.91;;;6.30;100.00
7662;BME280;30314;48.184;11.510;2023-05-01T04:09:17;95637.41;;;6.27;100.00
7662;BME280;30314;48.184;11.510;2023-05-01T04:11:44;95637.94;;;6.18;100.00
7662;BME280;30314;48.184;11.510;2023-05-01T04:14:12;95636.09;;;6.19;100.00
7662;BME280;30314;48.184;11.510;2023-05-01T04:16:38;95626.69;;;6.23;100.00
7662;BME280;30314;48.184;11.510;2023-05-01T04:19:05;95652.63;;;6.25;100.00
7662;BME280;30314;48.184;11.510;2023-05-01T04:21:34;95651.06;;;6.34;100.00
7662;BME280;30314;48.184;11.510;2023-05-01T04:24:01;95641.34;;;6.24;100.00
7662;BME280;30314;48.184;11.510;2023-05-01T04:26:27;95640.31;;;6.25;100.00
7662;BME280;30314;48.184;11.510;2023-05-01T04:28:54;95643.69;;;6.26;100.00
7662;BME280;30314;48.184;11.510;2023-05-01T04:31:23;95642.66;;;6.27;100.00
7662;BME280;30314;48.184;11.510;2023-05-01T04:33:50;95639.53;;;6.30;100.00
7662;BME280;30314;48.184;11.510;2023-05-01T04:36:17;95640.81;;;6.38;100.00
7662;BME280;30314;48.184;11.510;2023-05-01T04:38:44;95640.81;;;6.27;100.00
7662;BME280;30314;48.184;11.510;2023-05-01T04:41:11;95643.72;;;6.31;100.00
7662;BME280;30314;48.184;11.510;2023-05-01T04:43:38;95654.72;;;6.43;100.00
7662;BME280;30314;48.184;11.510;2023-05-01T04:46:05;95643.69;;;6.52;100.00
7662;BME280;30314;48.184;11.510;2023-05-01T04:48:32;95629.53;;;6.37;100.00
7662;BME280;30314;48.184;11.510;2023-05-01T04:50:59;95652.63;;;6.56;100.00
7662;BME280;30314;48.184;11.510;2023-05-01T04:53:28;95653.41;;;6.77;100.00
7662;BME280;30314;48.184;11.510;2023-05-01T04:55:55;95647.34;;;6.76;100.00
7662;BME280;30314;48.184;11.510;2023-05-01T04:58:22;95633.44;;;6.81;100.00
7662;BME280;30314;48.184;11.510;2023-05-01T05:00:54;95628.47;;;6.74;100.00
7662;BME280;30314;48.184;11.510;2023-05-01T05:03:22;95637.91;;;6.81;100.00
7662;BME280;30314;48.184;11.510;2023-05-01T05:05:49;95654.13;;;6.98;100.00
7662;BME280;30314;48.184;11.510;2023-05-01T05:08:16;95647.78;;;7.15;100.00
7662;BME280;30314;48.184;11.510;2023-05-01T05:10:55;95654.06;;;7.19;100.00
7662;BME280;30314;48.184;11.510;2023-05-01T05:13:30;95637.25;;;7.20;100.00
7662;BME280;30314;48.184;11.510;2023-05-01T05:16:00;95649.28;;;7.37;100.00
7662;BME280;30314;48.184;11.510;2023-05-01T05:18:27;95638.78;;;7.31;100.00
7662;BME280;30314;48.184;11.510;2023-05-01T05:20:54;95651.31;;;7.45;100.00
7662;BME280;30314;48.184;11.510;2023-05-01T05:23:21;95658.91;;;7.57;100.00
7662;BME280;30314;48.184;11.510;2023-05-01T05:25:48;95658.09;;;7.61;100.00
7662;BME280;30314;48.184;11.510;2023-05-01T05:28:15;95642.28;;;7.67;100.00
7662;BME280;30314;48.184;11.510;2023-05-01T05:30:42;95638.03;;;7.76;100.00
7662;BME280;30314;48.184;11.510;2023-05-01T05:33:13;95641.38;;;7.87;100.00
7662;BME280;30314;48.184;11.510;2023-05-01T05:35:40;95651.03;;;7.97;100.00
7662;BME280;30314;48.184;11.510;2023-05-01T05:38:07;95668.00;;;8.15;100.00
7662;BME280;30314;48.184;11.510;2023-05-01T05:40:37;95657.56;;;8.04;100.00
7662;BME280;30314;48.184;11.510;2023-05-01T05:43:04;95669.25;;;8.23;100.00
7662;BME280;30314;48.184;11.510;2023-05-01T05:45:34;95655.56;;;8.26;100.00
7662;BME280;30314;48.184;11.510;2023-05-01T05:48:01;95652.59;;;8.38;100.00
7662;BME280;30314;48.184;11.510;2023-05-01T05:50:31;95644.19;;;8.36;100.00
7662;BME280;30314;48.184;11.510;2023-05-01T05:52:58;95665.34;;;8.55;100.00
7662;BME280;30314;48.184;11.510;2023-05-01T05:55:24;95664.72;;;8.63;100.00
7662;BME280;30314;48.184;11.510;2023-05-01T05:57:59;95649.75;;;8.58;100.00
7662;BME280;30314;48.184;11.510;2023-05-01T06:00:27;95671.22;;;8.76;100.00
7662;BME280;30314;48.184;11.510;2023-05-01T06:02:55;95673.78;;;8.81;100.00
7662;BME280;30314;48.184;11.510;2023-05-01T06:05:25;95615.88;;;8.52;100.00
7662;BME280;30314;48.184;11.510;2023-05-01T06:07:52;95646.03;;;8.65;100.00
7662;BME280;30314;48.184;11.510;2023-05-01T06:10:20;95657.34;;;8.65;100.00
7662;BME280;30314;48.184;11.510;2023-05-01T06:12:46;95658.88;;;8.71;100.00
7662;BME280;30314;48.184;11.510;2023-05-01T06:15:23;95653.22;;;8.83;100.00
7662;BME280;30314;48.184;11.510;2023-05-01T06:17:52;95658.66;;;8.92;100.00
7662;BME280;30314;48.184;11.510;2023-05-01T06:20:19;95618.38;;;8.92;100.00
7662;BME280;30314;48.184;11.510;2023-05-01T06:22:47;95612.66;;;8.84;100.00
7662;BME280;30314;48.184;11.510;2023-05-01T06:25:19;95633.34;;;8.96;100.00
7662;BME280;30314;48.184;11.510;2023-05-01T06:27:46;95635.91;;;9.01;100.00
7662;BME280;30314;48.184;11.510;2023-05-01T06:30:12;95640.06;;;9.08;100.00
7662;BME280;30314;48.184;11.510;2023-05-01T06:32:41;95632.03;;;8.94;100.00
7662;BME280;30314;48.184;11.510;2023-05-01T06:35:09;95647.63;;;9.14;100.00
7662;BME280;30314;48.184;11.510;2023-05-01T06:37:36;95649.41;;;9.24;100.00
7662;BME280;30314;48.184;11.510;2023-05-01T06:40:06;95644.06;;;9.29;100.00
7662;BME280;30314;48.184;11.510;2023-05-01T06:42:33;95654.06;;;9.33;100.00
7662;BME280;30314;48.184;11.510;2023-05-01T06:45:00;95655.47;;;9.44;100.00
7662;BME280;30314;48.184;11.510;2023-05-01T06:47:27;95662.25;;;9.50;100.00
7662;BME280;30314;48.184;11.510;2023-05-01T06:49:53;95666.00;;;9.44;100.00
7662;BME280;30314;48.184;11.510;2023-05-01T06:52:20;95665.06;;;9.59;100.00
7662;BME280;30314;48.184;11.510;2023-05-01T06:54:47;95661.91;;;9.57;100.00
7662;BME280;30314;48.184;11.510;2023-05-01T06:57:13;95649.88;;;9.70;100.00
7662;BME280;30314;48.184;11.510;2023-05-01T06:59:40;95658.72;;;9.79;100.00
7662;BME280;30314;48.184;11.510;2023-05-01T07:02:06;95635.97;;;9.64;100.00
7662;BME280;30314;48.184;11.510;2023-05-01T07:04:33;95647.91;;;9.81;100.00
7662;BME280;30314;48.184;11.510;2023-05-01T07:06:59;95653.38;;;9.84;100.00
7662;BME280;30314;48.184;11.510;2023-05-01T07:09:27;95664.78;;;9.99;100.00
7662;BME280;30314;48.184;11.510;2023-05-01T07:11:54;95645.31;;;9.95;100.00
7662;BME280;30314;48.184;11.510;2023-05-01T07:14:22;95658.97;;;10.16;100.00
7662;BME280;30314;48.184;11.510;2023-05-01T07:16:49;95645.44;;;10.04;100.00
7662;BME280;30314;48.184;11.510;2023-05-01T07:19:15;95658.22;;;10.15;100.00
7662;BME280;30314;48.184;11.510;2023-05-01T07:21:42;95657.38;;;10.34;100.00
7662;BME280;30314;48.184;11.510;2023-05-01T07:24:08;95643.78;;;10.27;100.00
7662;BME280;30314;48.184;11.510;2023-05-01T07:26:35;95651.34;;;10.34;100.00
7662;BME280;30314;48.184;11.510;2023-05-01T07:29:03;95638.41;;;10.32;100.00
7662;BME280;30314;48.184;11.510;2023-05-01T07:31:29;95654.59;;;10.45;100.00
7662;BME280;30314;48.184;11.510;2023-05-01T07:33:56;95655.88;;;10.47;100.00
7662;BME280;30314;48.184;11.510;2023-05-01T07:36:23;95652.22;;;10.43;100.00
7662;BME280;30314;48.184;11.510;2023-05-01T07:38:49;95621.88;;;10.26;100.00
7662;BME280;30314;48.184;11.510;2023-05-01T07:41:15;95629.91;;;10.35;100.00
7662;BME280;30314;48.184;11.510;2023-05-01T07:43:42;95656.91;;;10.65;100.00
7662;BME280;30314;48.184;11.510;2023-05-01T07:46:09;95662.84;;;10.71;100.00
7662;BME280;30314;48.184;11.510;2023-05-01T07:48:35;95674.63;;;10.79;100.00
7662;BME280;30314;48.184;11.510;2023-05-01T07:51:04;95619.09;;;10.51;100.00
7662;BME280;30314;48.184;11.510;2023-05-01T07:53:31;95670.91;;;10.80;100.00
7662;BME280;30314;48.184;11.510;2023-05-01T07:56:06;95668.75;;;10.96;100.00
7662;BME280;30314;48.184;11.510;2023-05-01T07:58:34;95641.63;;;10.62;100.00
7662;BME280;30314;48.184;11.510;2023-05-01T08:01:02;95674.63;;;10.93;100.00
7662;BME280;30314;48.184;11.510;2023-05-01T08:03:29;95675.59;;;10.97;98.91
7662;BME280;30314;48.184;11.510;2023-05-01T08:05:57;95669.06;;;10.94;98.60
7662;BME280;30314;48.184;11.510;2023-05-01T08:08:23;95677.97;;;10.98;99.72
7662;BME280;30314;48.184;11.510;2023-05-01T08:10:51;95681.28;;;10.90;100.00
7662;BME280;30314;48.184;11.510;2023-05-01T08:13:17;95649.31;;;10.58;100.00
7662;BME280;30314;48.184;11.510;2023-05-01T08:15:46;95691.78;;;10.95;100.00
7662;BME280;30314;48.184;11.510;2023-05-01T08:18:13;95702.03;;;10.97;100.00
7662;BME280;30314;48.184;11.510;2023-05-01T08:20:48;95677.66;;;10.72;100.00
7662;BME280;30314;48.184;11.510;2023-05-01T08:23:15;95679.31;;;10.82;100.00
7662;BME280;30314;48.184;11.510;2023-05-01T08:25:42;95660.91;;;10.63;100.00
7662;BME280;30314;48.184;11.510;2023-05-01T08:28:10;95690.53;;;10.74;100.00
7662;BME280;30314;48.184;11.510;2023-05-01T08:30:37;95665.34;;;10.48;100.00
7662;BME280;30314;48.184;11.510;2023-05-01T08:33:04;95697.78;;;10.68;100.00
7662;BME280;30314;48.184;11.510;2023-05-01T08:35:30;95708.16;;;10.78;100.00
7662;BME280;30314;48.184;11.510;2023-05-01T08:37:57;95699.44;;;10.64;100.00
7662;BME280;30314;48.184;11.510;2023-05-01T08:40:24;95691.22;;;10.65;100.00
7662;BME280;30314;48.184;11.510;2023-05-01T08:42:52;95690.53;;;10.60;100.00
7662;BME280;30314;48.184;11.510;2023-05-01T08:45:22;95700.13;;;10.69;100.00
7662;BME280;30314;48.184;11.510;2023-05-01T08:47:51;95698.63;;;10.63;100.00
7662;BME280;30314;48.184;11.510;2023-05-01T08:50:18;95656.25;;;10.40;100.00
7662;BME280;30314;48.184;11.510;2023-05-01T08:52:46;95657.59;;;10.38;100.00
7662;BME280;30314;48.184;11.510;2023-05-01T08:55:14;95712.25;;;10.70;100.00
7662;BME280;30314;48.184;11.510;2023-05-01T08:57:45;95660.59;;;10.31;100.00
7662;BME280;30314;48.184;11.510;2023-05-01T09:00:19;95704.50;;;10.60;100.00
7662;BME280;30314;48.184;11.510;2023-05-01T09:02:48;95687.75;;;10.51;100.00
7662;BME280;30314;48.184;11.510;2023-05-01T09:05:16;95712.03;;;10.53;100.00
7662;BME280;30314;48.184;11.510;2023-05-01T09:07:44;95717.59;;;10.51;100.00
7662;BME280;30314;48.184;11.510;2023-05-01T09:10:13;95698.97;;;10.42;100.00
7662;BME280;30314;48.184;11.510;2023-05-01T09:12:41;95721.50;;;10.54;100.00
7662;BME280;30314;48.184;11.510;2023-05-01T09:15:11;95703.75;;;10.40;100.00
7662;BME280;30314;48.184;11.510;2023-05-01T09:17:38;95725.44;;;10.37;100.00
7662;BME280;30314;48.184;11.510;2023-05-01T09:20:06;95679.53;;;10.00;100.00
7662;BME280;30314;48.184;11.510;2023-05-01T09:22:33;95692.44;;;10.01;100.00
7662;BME280;30314;48.184;11.510;2023-05-01T09:25:00;95705.28;;;10.08;100.00
7662;BME280;30314;48.184;11.510;2023-05-01T09:27:27;95721.06;;;10.13;100.00
7662;BME280;30314;48.184;11.510;2023-05-01T09:29:54;95693.56;;;9.76;100.00
7662;BME280;30314;48.184;11.510;2023-05-01T09:32:25;95730.06;;;9.88;100.00
7662;BME280;30314;48.184;11.510;2023-05-01T09:35:08;95723.66;;;9.75;100.00
7662;BME280;30314;48.184;11.510;2023-05-01T09:37:36;95734.56;;;9.68;100.00
7662;BME280;30314;48.184;11.510;2023-05-01T09:42:30;95729.31;;;9.88;100.00
7662;BME280;30314;48.184;11.510;2023-05-01T09:45:01;95722.00;;;9.79;100.00
7662;BME280;30314;48.184;11.510;2023-05-01T09:47:29;95716.13;;;9.63;100.00
7662;BME280;30314;48.184;11.510;2023-05-01T09:49:56;95741.81;;;9.77;100.00
7662;BME280;30314;48.184;11.510;2023-05-01T09:52:29;95747.53;;;9.84;100.00
7662;BME280;30314;48.184;11.510;2023-05-01T09:55:14;95741.41;;;9.69;100.00
7662;BME280;30314;48.184;11.510;2023-05-01T09:57:42;95738.22;;;9.48;100.00
7662;BME280;30314;48.184;11.510;2023-05-01T10:00:10;95731.75;;;9.60;100.00
7662;BME280;30314;48.184;11.510;2023-05-01T10:02:38;95734.44;;;9.54;100.00
7662;BME280;30314;48.184;11.510;2023-05-01T10:05:05;95737.16;;;9.49;100.00
7662;BME280;30314;48.184;11.510;2023-05-01T10:07:32;95753.47;;;9.51;100.00
7662;BME280;30314;48.184;11.510;2023-05-01T10:10:18;95751.66;;;9.47;100.00
7662;BME280;30314;48.184;11.510;2023-05-01T10:12:47;95729.91;;;9.36;100.00
7662;BME280;30314;48.184;11.510;2023-05-01T10:15:14;95751.94;;;9.45;100.00
7662;BME280;30314;48.184;11.510;2023-05-01T10:17:52;95749.13;;;9.36;100.00
7662;BME280;30314;48.184;11.510;2023-05-01T10:20:20;95732.38;;;9.27;100.00
7662;BME280;30314;48.184;11.510;2023-05-01T10:22:46;95744.09;;;9.40;100.00
7662;BME280;30314;48.184;11.510;2023-05-01T10:25:16;95751.00;;;9.36;100.00
7662;BME280;30314;48.184;11.510;2023-05-01T10:27:43;95742.59;;;9.34;100.00
7662;BME280;30314;48.184;11.510;2023-05-01T10:30:10;95734.53;;;9.20;100.00
7662;BME280;30314;48.184;11.510;2023-05-01T10:32:37;95748.13;;;9.32;100.00
7662;BME280;30314;48.184;11.510;2023-05-01T10:35:08;95757.78;;;9.42;100.00
7662;BME280;30314;48.184;11.510;2023-05-01T10:37:46;95752.00;;;9.40;100.00
7662;BME280;30314;48.184;11.510;2023-05-01T10:43:28;95735.59;;;9.19;100.00
7662;BME280;30314;48.184;11.510;2023-05-01T10:51:14;95744.56;;;9.47;100.00
7662;BME280;30314;48.184;11.510;2023-05-01T10:53:41;95741.78;;;9.33;100.00
7662;BME280;30314;48.184;11.510;2023-05-01T11:01:44;95730.81;;;9.50;100.00
7662;BME280;30314;48.184;11.510;2023-05-01T11:12:53;95714.53;;;9.43;100.00
7662;BME280;30314;48.184;11.510;2023-05-01T11:15:01;95719.25;;;9.46;100.00
7662;BME280;30314;48.184;11.510;2023-05-01T11:20:09;95685.00;;;9.46;100.00
7662;BME280;30314;48.184;11.510;2023-05-01T11:22:38;95706.50;;;9.53;100.00
7662;BME280;30314;48.184;11.510;2023-05-01T11:27:48;95714.72;;;9.71;100.00
7662;BME280;30314;48.184;11.510;2023-05-01T11:30:15;95708.56;;;9.81;100.00
7662;BME280;30314;48.184;11.510;2023-05-01T11:32:43;95698.03;;;9.56;100.00
7662;BME280;30314;48.184;11.510;2023-05-01T11:35:24;95708.91;;;9.74;100.00
7662;BME280;30314;48.184;11.510;2023-05-01T11:37:55;95693.50;;;9.81;100.00
7662;BME280;30314;48.184;11.510;2023-05-01T11:40:27;95671.91;;;9.79;100.00
7662;BME280;30314;48.184;11.510;2023-05-01T11:43:07;95698.78;;;10.00;100.00
7662;BME280;30314;48.184;11.510;2023-05-01T11:45:35;95701.78;;;9.94;100.00
7662;BME280;30314;48.184;11.510;2023-05-01T11:48:03;95698.19;;;9.84;100.00
7662;BME280;30314;48.184;11.510;2023-05-01T11:50:39;95699.75;;;9.85;100.00
7662;BME280;30314;48.184;11.510;2023-05-01T11:53:11;95685.38;;;9.78;100.00
7662;BME280;30314;48.184;11.510;2023-05-01T11:55:39;95705.34;;;10.03;100.00
7662;BME280;30314;48.184;11.510;2023-05-01T11:58:06;95693.50;;;9.81;100.00
7662;BME280;30314;48.184;11.510;2023-05-01T12:00:34;95710.50;;;9.94;100.00
7662;BME280;30314;48.184;11.510;2023-05-01T12:05:34;95708.25;;;10.01;100.00
7662;BME280;30314;48.184;11.510;2023-05-01T12:08:12;95710.31;;;10.05;100.00
7662;BME280;30314;48.184;11.510;2023-05-01T12:10:41;95710.31;;;10.05;100.00
7662;BME280;30314;48.184;11.510;2023-05-01T12:13:10;95701.56;;;10.09;100.00
7662;BME280;30314;48.184;11.510;2023-05-01T12:15:45;95708.22;;;10.26;100.00
7662;BME280;30314;48.184;11.510;2023-05-01T12:18:14;95698.50;;;10.21;100.00
7662;BME280;30314;48.184;11.510;2023-05-01T12:20:46;95704.50;;;10.27;100.00
7662;BME280;30314;48.184;11.510;2023-05-01T12:23:14;95712.31;;;10.51;100.00
7662;BME280;30314;48.184;11.510;2023-05-01T12:25:42;95687.50;;;10.33;100.00
7662;BME280;30314;48.184;11.510;2023-05-01T12:28:13;95718.88;;;10.54;100.00
7662;BME280;30314;48.184;11.510;2023-05-01T12:30:42;95696.47;;;10.51;100.00
7662;BME280;30314;48.184;11.510;2023-05-01T12:33:10;95712.06;;;10.67;100.00
7662;BME280;30314;48.184;11.510;2023-05-01T12:35:38;95696.56;;;10.60;100.00
7662;BME280;30314;48.184;11.510;2023-05-01T12:38:15;95713.72;;;10.77;100.00
7662;BME280;30314;48.184;11.510;2023-05-01T12:43:27;95692.47;;;10.54;100.00
7662;BME280;30314;48.184;11.510;2023-05-01T12:45:55;95695.88;;;10.54;100.00
7662;BME280;30314;48.184;11.510;2023-05-01T12:48:22;95716.59;;;10.80;100.00
7662;BME280;30314;48.184;11.510;2023-05-01T12:50:50;95704.25;;;10.76;100.00
7662;BME280;30314;48.184;11.510;2023-05-01T12:53:27;95705.25;;;10.80;100.00
7662;BME280;30314;48.184;11.510;2023-05-01T12:55:57;95694.75;;;10.75;100.00
7662;BME280;30314;48.184;11.510;2023-05-01T12:58:37;95716.03;;;10.97;100.00
7662;BME280;30314;48.184;11.510;2023-05-01T13:01:04;95709.34;;;10.86;100.00
7662;BME280;30314;48.184;11.510;2023-05-01T13:03:32;95697.19;;;10.71;100.00
7662;BME280;30314;48.184;11.510;2023-05-01T13:06:03;95695.66;;;10.84;100.00
7662;BME280;30314;48.184;11.510;2023-05-01T13:08:35;95711.72;;;11.02;100.00
7662;BME280;30314;48.184;11.510;2023-05-01T13:11:15;95716.25;;;11.01;100.00
7662;BME280;30314;48.184;11.510;2023-05-01T13:13:43;95703.41;;;10.94;100.00
7662;BME280;30314;48.184;11.510;2023-05-01T13:16:15;95699.59;;;11.00;100.00
7662;BME280;30314;48.184;11.510;2023-05-01T13:18:46;95712.56;;;11.16;100.00
7662;BME280;30314;48.184;11.510;2023-05-01T13:21:20;95707.00;;;11.32;100.00
7662;BME280;30314;48.184;11.510;2023-05-01T13:23:55;95697.47;;;11.31;100.00
7662;BME280;30314;48.184;11.510;2023-05-01T13:26:29;95706.50;;;11.44;100.00
7662;BME280;30314;48.184;11.510;2023-05-01T13:28:59;95701.41;;;11.47;100.00
7662;BME280;30314;48.184;11.510;2023-05-01T13:31:27;95695.53;;;11.36;100.00
7662;BME280;30314;48.184;11.510;2023-05-01T13:33:57;95700.44;;;11.43;100.00
7662;BME280;30314;48.184;11.510;2023-05-01T13:36:24;95697.59;;;11.39;100.00
7662;BME280;30314;48.184;11.510;2023-05-01T13:38:55;95694.16;;;11.39;100.00
7662;BME280;30314;48.184;11.510;2023-05-01T13:41:25;95706.47;;;11.58;100.00
7662;BME280;30314;48.184;11.510;2023-05-01T13:43:53;95680.34;;;11.42;100.00
7662;BME280;30314;48.184;11.510;2023-05-01T13:46:21;95704.53;;;11.63;100.00
7662;BME280;30314;48.184;11.510;2023-05-01T13:48:49;95694.13;;;11.67;100.00
7662;BME280;30314;48.184;11.510;2023-05-01T13:51:23;95712.81;;;11.84;100.00